Aérodrome :
LOGIN :

S'inscrire | Disclaimer

   EN    FR    IT 

 










Légende :    VFR   VFR Marginal   IFR   IFR Intensif   IFR Très Intensif
Visi : 
Plafond : 
>= 8 km
>= 3000ft
5 à 8 km
1000 à 3000 ft
1500m à 5 km
500 à 1000 ft
800 à 1500m
200 à 500 ft
< 800m
< 200 ft
Symboles :   Orages  Brouillard  Fortes neiges  Fortes précipitations  Vent > 20 kt
SIGMETs :   Divers  Orages  Givrage  Turbulence  Onde Orograph.  Cendres Volcan.







- Altitude de l'aérodrome : 2302 ft
- Voir les cartes d'approche


LEAB - Albacete

DERNIER METAR :
  • 161900Z 32008KT CAVOK 28/03 Q1019 NOSIG

METARs EXPIRÉS :
  • 161800Z 34011KT 310V010 CAVOK 29/04 Q1019 NOSIG
  • 161700Z 33013KT 300V360 CAVOK 29/05 Q1019 NOSIG

TAF TAF LEAB
Valide du 16 à 18h jusqu'au 17 à 03h UTC


161700Z 1618/1703 32015KT CAVOK
BECMG 1619/1621 32005KT
Pas de NOTAMs connus pour ce terrain.



MET'MAP, la Météo Aéronautique d'un coup d'oeil ! - Copyright ORBIFLY Décembre 2007 - Disclaimer

ORBIFLY MET'MAP TEAM :

Programmation & Développement : Alexandra Zaïnal
Conception & Développement : Baudouin d'Aumeries
Co-Programmation & Développement : Marc-Olivier Méhu
Soutien technique & logistique : Manuel Goepfert

Contact : metmap@orbifly.com




SOURCES & CREDITS :

   NOAA